createdAt,value
2018-06-08T00:00:01.636Z,99190.26
2018-06-08T00:02:31.750Z,99189.39
2018-06-08T00:05:01.812Z,99182.81
2018-06-08T00:07:32.031Z,99183.92
2018-06-08T00:10:02.207Z,99177.35
2018-06-08T00:12:32.360Z,99179.00
2018-06-08T00:15:02.552Z,99173.86
2018-06-08T00:17:32.586Z,99172.84
2018-06-08T00:20:02.617Z,99167.13
2018-06-08T00:22:32.797Z,99166.42
2018-06-08T00:25:02.966Z,99166.47
2018-06-08T00:27:33.275Z,99160.52
2018-06-08T00:30:03.390Z,99163.51
2018-06-08T00:32:33.538Z,99155.31
2018-06-08T00:35:03.737Z,99156.91
2018-06-08T00:37:34.362Z,99158.50
2018-06-08T00:40:04.891Z,99158.40
2018-06-08T00:42:35.322Z,99157.02
2018-06-08T00:45:05.956Z,99156.97
2018-06-08T00:47:36.755Z,99156.95
2018-06-08T00:50:06.725Z,99153.67
2018-06-08T00:52:36.829Z,99158.86
2018-06-08T00:55:07.374Z,99155.05
2018-06-08T00:57:37.826Z,99155.81
2018-06-08T01:00:08.071Z,99149.80
2018-06-08T01:02:38.539Z,99153.08
2018-06-08T01:05:08.598Z,99157.23
2018-06-08T01:07:38.877Z,99153.75
2018-06-08T01:10:09.159Z,99146.91
2018-06-08T01:12:39.485Z,99147.47
2018-06-08T01:15:09.884Z,99151.70
2018-06-08T01:17:40.169Z,99161.23
2018-06-08T01:20:10.717Z,99152.63
2018-06-08T01:22:41.052Z,99152.12
2018-06-08T01:25:11.601Z,99153.81
2018-06-08T01:27:41.886Z,99156.22
2018-06-08T01:30:12.271Z,99150.58
2018-06-08T01:32:42.440Z,99153.08
2018-06-08T01:35:12.681Z,99154.67
2018-06-08T01:37:43.066Z,99154.08
2018-06-08T01:40:13.263Z,99149.76
2018-06-08T01:42:43.459Z,99142.39
2018-06-08T01:45:13.698Z,99136.23
2018-06-08T01:47:43.853Z,99138.97
2018-06-08T01:50:14.218Z,99134.38
2018-06-08T01:52:44.349Z,99135.59
2018-06-08T01:55:15.051Z,99138.96
2018-06-08T01:57:45.174Z,99141.69
2018-06-08T02:00:15.473Z,99141.96
2018-06-08T02:02:45.758Z,99147.73
2018-06-08T02:05:15.839Z,99150.78
2018-06-08T02:07:46.206Z,99149.73
2018-06-08T02:10:16.552Z,99149.45
2018-06-08T02:12:46.592Z,99148.09
2018-06-08T02:15:16.838Z,99157.64
2018-06-08T02:17:46.841Z,99145.87
2018-06-08T02:20:16.952Z,99145.05
2018-06-08T02:22:47.123Z,99145.31
2018-06-08T02:25:17.511Z,99139.85
2018-06-08T02:27:47.621Z,99131.36
2018-06-08T02:30:17.768Z,99143.68
2018-06-08T02:32:47.779Z,99134.94
2018-06-08T02:35:17.711Z,99142.32
2018-06-08T02:37:48.004Z,99150.50
2018-06-08T02:40:18.160Z,99150.81
2018-06-08T02:42:48.740Z,99153.55
2018-06-08T02:45:19.187Z,99152.42
2018-06-08T02:47:49.815Z,99152.97
2018-06-08T02:50:19.877Z,99144.46
2018-06-08T02:52:50.039Z,99150.69
2018-06-08T02:55:20.087Z,99153.12
2018-06-08T02:57:50.267Z,99147.66
2018-06-08T03:00:20.279Z,99148.24
2018-06-08T03:02:50.529Z,99144.89
2018-06-08T03:05:20.833Z,99145.74
2018-06-08T03:07:51.093Z,99141.09
2018-06-08T03:10:21.641Z,99145.66
2018-06-08T03:12:51.936Z,99153.30
2018-06-08T03:15:22.222Z,99145.66
2018-06-08T03:17:52.121Z,99141.84
2018-06-08T03:20:22.511Z,99153.12
2018-06-08T03:22:52.416Z,99145.47
2018-06-08T03:25:22.568Z,99150.66
2018-06-08T03:27:52.564Z,99148.66
2018-06-08T03:30:22.697Z,99145.07
2018-06-08T03:32:53.112Z,99152.21
2018-06-08T03:35:24.055Z,99148.98
2018-06-08T03:37:54.167Z,99153.66
2018-06-08T03:40:24.546Z,99158.00
2018-06-08T03:42:54.629Z,99162.83
2018-06-08T03:45:24.754Z,99160.05
2018-06-08T03:47:54.970Z,99150.94
2018-06-08T03:50:24.990Z,99153.95
2018-06-08T03:52:54.992Z,99153.40
2018-06-08T03:55:25.311Z,99156.37
2018-06-08T03:57:55.688Z,99162.92
2018-06-08T04:00:25.962Z,99163.70
2018-06-08T04:02:56.087Z,99158.45
2018-06-08T04:05:26.035Z,99164.10
2018-06-08T04:07:56.325Z,99161.37
2018-06-08T04:10:26.522Z,99158.81
2018-06-08T04:12:56.860Z,99155.77
2018-06-08T04:15:27.253Z,99151.66
2018-06-08T04:17:57.451Z,99158.39
2018-06-08T04:20:28.103Z,99152.86
2018-06-08T04:22:58.283Z,99155.59
2018-06-08T04:25:28.548Z,99155.00
2018-06-08T04:27:58.731Z,99157.50
2018-06-08T04:30:28.843Z,99166.47
2018-06-08T04:32:59.003Z,99174.72
2018-06-08T04:35:29.385Z,99171.61
2018-06-08T04:37:59.715Z,99172.12
2018-06-08T04:40:30.257Z,99175.34
2018-06-08T04:43:01.371Z,99168.06
2018-06-08T04:45:31.559Z,99170.91
2018-06-08T04:48:01.625Z,99161.87
2018-06-08T04:50:32.051Z,99162.04
2018-06-08T04:53:02.126Z,99163.29
2018-06-08T04:55:32.515Z,99171.06
2018-06-08T04:58:02.751Z,99167.27
2018-06-08T05:00:33.151Z,99172.42
2018-06-08T05:03:03.371Z,99171.88
2018-06-08T05:05:33.552Z,99180.30
2018-06-08T05:08:03.545Z,99175.29
2018-06-08T05:10:33.934Z,99173.00
2018-06-08T05:13:04.001Z,99183.11
2018-06-08T05:15:34.497Z,99188.52
2018-06-08T05:18:04.610Z,99186.02
2018-06-08T05:20:34.721Z,99189.88
2018-06-08T05:23:04.829Z,99183.49
2018-06-08T05:25:34.978Z,99188.25
2018-06-08T05:28:05.103Z,99193.39
2018-06-08T05:30:35.419Z,99194.95
2018-06-08T05:33:05.371Z,99207.21
2018-06-08T05:35:35.627Z,99197.63
2018-06-08T05:38:05.841Z,99199.34
2018-06-08T05:40:36.628Z,99203.58
2018-06-08T05:43:06.736Z,99203.11
2018-06-08T05:45:37.042Z,99209.70
2018-06-08T05:48:07.352Z,99213.05
2018-06-08T05:50:37.799Z,99213.67
2018-06-08T05:53:08.071Z,99207.01
2018-06-08T05:55:38.381Z,99201.13
2018-06-08T05:58:09.135Z,99207.27
2018-06-08T06:00:39.466Z,99208.27
2018-06-08T06:03:10.046Z,99211.93
2018-06-08T06:05:40.530Z,99205.72
2018-06-08T06:08:10.930Z,99201.55
2018-06-08T06:10:41.547Z,99200.86
2018-06-08T06:13:11.918Z,99211.61
2018-06-08T06:15:42.280Z,99210.58
2018-06-08T06:18:12.652Z,99217.42
2018-06-08T06:20:43.195Z,99219.88
2018-06-08T06:23:14.131Z,99209.03
2018-06-08T06:25:44.549Z,99211.72
2018-06-08T06:28:14.548Z,99219.88
2018-06-08T06:30:44.882Z,99219.19
2018-06-08T06:33:15.354Z,99220.09
2018-06-08T06:35:45.840Z,99221.66
2018-06-08T06:38:15.976Z,99220.58
2018-06-08T06:40:46.189Z,99218.01
2018-06-08T06:43:16.349Z,99224.36
2018-06-08T06:45:46.859Z,99214.86
2018-06-08T06:48:17.226Z,99227.14
2018-06-08T06:50:47.785Z,99223.84
2018-06-08T06:53:18.156Z,99218.83
2018-06-08T06:55:48.462Z,99216.33
2018-06-08T06:58:18.990Z,99225.51
2018-06-08T07:00:49.460Z,99229.89
2018-06-08T07:03:19.685Z,99222.13
2018-06-08T07:05:49.923Z,99220.69
2018-06-08T07:08:20.328Z,99217.48
2018-06-08T07:10:50.590Z,99218.70
2018-06-08T07:13:20.931Z,99219.41
2018-06-08T07:15:51.946Z,99220.06
2018-06-08T07:18:22.369Z,99218.69
2018-06-08T07:20:52.806Z,99226.82
2018-06-08T07:23:23.261Z,99223.91
2018-06-08T07:25:53.707Z,99218.59
2018-06-08T07:28:23.900Z,99224.27
2018-06-08T07:30:54.283Z,99229.20
2018-06-08T07:33:24.673Z,99221.53
2018-06-08T07:35:54.819Z,99216.72
2018-06-08T07:38:24.978Z,99225.20
2018-06-08T07:40:55.171Z,99230.70
2018-06-08T07:43:25.388Z,99226.84
2018-06-08T07:45:55.533Z,99218.72
2018-06-08T07:48:25.710Z,99221.34
2018-06-08T07:50:55.960Z,99216.45
2018-06-08T07:53:26.203Z,99221.28
2018-06-08T07:55:56.541Z,99216.23
2018-06-08T07:58:27.173Z,99215.10
2018-06-08T08:00:57.368Z,99213.09
2018-06-08T08:03:27.708Z,99214.84
2018-06-08T08:05:57.818Z,99218.47
2018-06-08T08:08:27.806Z,99220.94
2018-06-08T08:10:58.036Z,99219.38
2018-06-08T08:13:27.847Z,99220.09
2018-06-08T08:15:57.859Z,99221.34
2018-06-08T08:18:27.817Z,99219.41
2018-06-08T08:20:57.706Z,99211.72
2018-06-08T08:23:27.718Z,99208.41
2018-06-08T08:25:57.613Z,99207.22
2018-06-08T08:28:27.491Z,99212.62
2018-06-08T08:30:57.409Z,99209.30
2018-06-08T08:33:27.289Z,99210.13
2018-06-08T08:35:57.289Z,99217.52
2018-06-08T08:38:27.102Z,99210.11
2018-06-08T08:40:56.945Z,99213.05
2018-06-08T08:43:26.777Z,99203.38
2018-06-08T08:45:56.712Z,99197.17
2018-06-08T08:48:26.470Z,99205.53
2018-06-08T08:50:56.427Z,99200.70
2018-06-08T08:53:26.219Z,99204.17
2018-06-08T08:55:56.127Z,99201.92
2018-06-08T08:58:26.092Z,99195.91
2018-06-08T09:00:56.023Z,99196.30
2018-06-08T09:03:25.839Z,99192.84
2018-06-08T09:05:56.607Z,99192.73
2018-06-08T09:08:26.419Z,99189.30
2018-06-08T09:10:56.349Z,99189.83
2018-06-08T09:13:26.205Z,99181.91
2018-06-08T09:15:56.125Z,99187.95
2018-06-08T09:18:25.927Z,99182.14
2018-06-08T09:20:55.952Z,99174.46
2018-06-08T09:23:25.803Z,99179.31
2018-06-08T09:25:55.715Z,99177.61
2018-06-08T09:28:25.866Z,99176.27
2018-06-08T09:30:55.748Z,99167.39
2018-06-08T09:33:25.708Z,99161.94
2018-06-08T09:35:55.936Z,99157.01
2018-06-08T09:38:26.154Z,99157.41
2018-06-08T09:40:56.080Z,99150.20
2018-06-08T09:43:26.005Z,99151.48
2018-06-08T09:45:56.109Z,99149.73
2018-06-08T09:48:26.315Z,99141.48
2018-06-08T09:50:56.348Z,99144.45
2018-06-08T09:53:26.276Z,99143.80
2018-06-08T09:55:56.225Z,99141.58
2018-06-08T09:58:25.994Z,99133.80
2018-06-08T10:00:55.897Z,99131.68
2018-06-08T10:03:25.698Z,99131.67
2018-06-08T10:05:55.489Z,99131.28
2018-06-08T10:08:25.940Z,99133.59
2018-06-08T10:10:55.958Z,99126.47
2018-06-08T10:13:25.834Z,99123.70
2018-06-08T10:15:55.867Z,99129.80
2018-06-08T10:18:25.661Z,99127.63
2018-06-08T10:20:55.599Z,99126.36
2018-06-08T10:23:25.360Z,99127.17
2018-06-08T10:25:55.306Z,99123.13
2018-06-08T10:28:26.138Z,99128.80
2018-06-08T10:30:56.237Z,99124.63
2018-06-08T10:33:26.035Z,99134.73
2018-06-08T10:35:55.908Z,99122.09
2018-06-08T10:38:25.777Z,99128.56
2018-06-08T10:40:55.613Z,99130.66
2018-06-08T10:43:25.402Z,99128.92
2018-06-08T10:45:55.250Z,99123.20
2018-06-08T10:48:25.283Z,99123.84
2018-06-08T10:50:55.075Z,99110.55
2018-06-08T10:53:24.848Z,99113.65
2018-06-08T10:55:54.734Z,99109.09
2018-06-08T10:58:24.509Z,99113.72
2018-06-08T11:00:54.279Z,99113.33
2018-06-08T11:03:24.074Z,99112.20
2018-06-08T11:05:53.965Z,99104.02
2018-06-08T11:08:23.977Z,99100.66
2018-06-08T11:10:53.864Z,99093.09
2018-06-08T11:13:23.756Z,99096.21
2018-06-08T11:15:53.598Z,99088.34
2018-06-08T11:18:23.686Z,99090.76
2018-06-08T11:20:53.626Z,99080.08
2018-06-08T11:23:23.558Z,99078.96
2018-06-08T11:25:53.571Z,99085.28
2018-06-08T11:28:23.432Z,99092.03
2018-06-08T11:30:53.642Z,99082.85
2018-06-08T11:33:23.436Z,99074.80
2018-06-08T11:35:53.438Z,99073.38
2018-06-08T11:38:23.231Z,99075.69
2018-06-08T11:40:53.098Z,99072.15
2018-06-08T11:43:23.604Z,99067.30
2018-06-08T11:45:53.734Z,99075.00
2018-06-08T11:48:23.678Z,99064.48
2018-06-08T11:50:53.742Z,99068.19
2018-06-08T11:53:23.664Z,99054.62
2018-06-08T11:55:53.723Z,99057.03
2018-06-08T11:58:23.532Z,99047.48
2018-06-08T12:00:53.335Z,99052.56
2018-06-08T12:03:23.178Z,99055.45
2018-06-08T12:05:53.133Z,99047.22
2018-06-08T12:08:22.943Z,99057.30
2018-06-08T12:10:52.804Z,99059.72
2018-06-08T12:13:22.641Z,99059.96
2018-06-08T12:15:52.388Z,99058.46
2018-06-08T12:18:22.226Z,99046.84
2018-06-08T12:20:52.331Z,99061.30
2018-06-08T12:23:22.635Z,99051.26
2018-06-08T12:25:53.091Z,99048.21
2018-06-08T12:28:23.196Z,99043.31
2018-06-08T12:30:53.418Z,99036.19
2018-06-08T12:33:23.775Z,99031.02
2018-06-08T12:35:53.870Z,99037.77
2018-06-08T12:38:24.122Z,99032.16
2018-06-08T12:40:54.407Z,99038.14
2018-06-08T12:43:24.588Z,99040.30
2018-06-08T12:45:54.879Z,99030.52
2018-06-08T12:48:25.126Z,99027.24
2018-06-08T12:50:55.369Z,99026.70
2018-06-08T12:53:25.567Z,99018.98
2018-06-08T12:55:56.591Z,99019.98
2018-06-08T12:58:26.713Z,99023.36
2018-06-08T13:00:56.902Z,99017.56
2018-06-08T13:03:27.027Z,99024.53
2018-06-08T13:05:57.426Z,99008.16
2018-06-08T13:08:27.444Z,99015.46
2018-06-08T13:10:57.862Z,99011.95
2018-06-08T13:13:28.062Z,99014.69
2018-06-08T13:15:58.147Z,99019.14
2018-06-08T13:18:28.911Z,99010.06
2018-06-08T13:20:59.235Z,99005.70
2018-06-08T13:23:29.310Z,98997.97
2018-06-08T13:25:59.600Z,99001.34
2018-06-08T13:28:30.042Z,98994.01
2018-06-08T13:31:00.335Z,98995.80
2018-06-08T13:33:30.407Z,98994.41
2018-06-08T13:36:00.631Z,98990.12
2018-06-08T13:38:30.644Z,98992.36
2018-06-08T13:41:00.879Z,98987.27
2018-06-08T13:43:31.234Z,98982.10
2018-06-08T13:46:01.554Z,98984.63
2018-06-08T13:48:31.709Z,98968.11
2018-06-08T13:51:01.924Z,98981.24
2018-06-08T13:53:32.146Z,98977.72
2018-06-08T13:56:02.392Z,98978.31
2018-06-08T13:58:32.627Z,98975.62
2018-06-08T14:01:02.805Z,98963.63
2018-06-08T14:03:32.866Z,98960.11
2018-06-08T14:06:03.042Z,98960.52
2018-06-08T14:08:33.250Z,98954.05
2018-06-08T14:11:03.430Z,98943.95
2018-06-08T14:13:33.706Z,98941.25
2018-06-08T14:16:04.197Z,98947.09
2018-06-08T14:18:34.398Z,98942.91
2018-06-08T14:21:04.663Z,98928.73
2018-06-08T14:23:34.923Z,98919.78
2018-06-08T14:26:05.366Z,98928.78
2018-06-08T14:28:35.636Z,98918.58
2018-06-08T14:31:05.982Z,98917.00
2018-06-08T14:33:36.173Z,98909.52
2018-06-08T14:36:06.273Z,98913.94
2018-06-08T14:38:36.317Z,98909.14
2018-06-08T14:41:06.414Z,98909.09
2018-06-08T14:43:37.215Z,98900.00
2018-06-08T14:46:07.484Z,98894.92
2018-06-08T14:48:37.950Z,98892.16
2018-06-08T14:51:08.423Z,98893.20
2018-06-08T14:53:38.949Z,98889.15
2018-06-08T14:56:09.310Z,98881.82
2018-06-08T14:58:39.549Z,98883.35
2018-06-08T15:01:09.543Z,98881.39
2018-06-08T15:03:39.539Z,98868.80
2018-06-08T15:06:10.387Z,98866.21
2018-06-08T15:08:40.902Z,98873.17
2018-06-08T15:11:11.188Z,98865.14
2018-06-08T15:13:41.857Z,98863.63
2018-06-08T15:16:12.282Z,98862.35
2018-06-08T15:18:42.515Z,98863.67
2018-06-08T15:21:12.949Z,98860.63
2018-06-08T15:23:43.119Z,98851.23
2018-06-08T15:26:13.379Z,98852.79
2018-06-08T15:28:43.906Z,98838.91
2018-06-08T15:31:14.351Z,98853.47
2018-06-08T15:33:45.173Z,98834.78
2018-06-08T15:36:16.640Z,98840.27
2018-06-08T15:38:47.062Z,98839.30
2018-06-08T15:41:17.367Z,98833.48
2018-06-08T15:43:47.462Z,98830.43
2018-06-08T15:46:17.690Z,98829.09
2018-06-08T15:48:47.865Z,98827.83
2018-06-08T15:51:18.082Z,98824.05
2018-06-08T15:53:48.373Z,98822.55
2018-06-08T15:56:18.820Z,98822.08
2018-06-08T15:58:48.970Z,98822.30
2018-06-08T16:01:19.158Z,98821.02
2018-06-08T16:03:49.464Z,98819.81
2018-06-08T16:06:19.306Z,98816.98
2018-06-08T16:08:49.406Z,98822.72
2018-06-08T16:11:19.746Z,98826.53
2018-06-08T16:13:49.830Z,98827.95
2018-06-08T16:16:20.105Z,98830.89
2018-06-08T16:18:50.306Z,98838.42
2018-06-08T16:21:20.720Z,98842.67
2018-06-08T16:23:50.952Z,98839.66
2018-06-08T16:26:21.330Z,98857.77
2018-06-08T16:28:51.438Z,98854.09
2018-06-08T16:31:21.731Z,98854.52
2018-06-08T16:33:52.451Z,98849.47
2018-06-08T16:36:22.800Z,98858.31
2018-06-08T16:38:52.969Z,98852.45
2018-06-08T16:41:23.168Z,98858.49
2018-06-08T16:43:53.380Z,98860.25
2018-06-08T16:46:23.628Z,98864.87
2018-06-08T16:48:53.704Z,98861.08
2018-06-08T16:51:23.944Z,98858.91
2018-06-08T16:53:54.290Z,98853.52
2018-06-08T16:56:24.469Z,98863.81
2018-06-08T16:58:54.507Z,98844.05
2018-06-08T17:01:24.634Z,98844.21
2018-06-08T17:03:54.922Z,98835.01
2018-06-08T17:06:25.055Z,98830.85
2018-06-08T17:08:55.262Z,98830.25
2018-06-08T17:11:25.420Z,98829.39
2018-06-08T17:13:55.626Z,98834.20
2018-06-08T17:16:25.863Z,98836.53
2018-06-08T17:18:56.167Z,98838.20
2018-06-08T17:21:26.787Z,98843.91
2018-06-08T17:23:56.952Z,98839.11
2018-06-08T17:26:27.123Z,98839.47
2018-06-08T17:28:57.544Z,98839.30
2018-06-08T17:31:27.771Z,98844.33
2018-06-08T17:33:58.050Z,98851.22
2018-06-08T17:36:29.115Z,98852.74
2018-06-08T17:38:59.556Z,98850.48
2018-06-08T17:41:29.859Z,98853.69
2018-06-08T17:44:00.150Z,98858.00
2018-06-08T17:46:30.281Z,98853.27
2018-06-08T17:49:00.507Z,98849.06
2018-06-08T17:51:30.839Z,98846.44
2018-06-08T17:54:01.007Z,98850.98
2018-06-08T17:56:32.321Z,98850.86
2018-06-08T17:59:02.916Z,98851.64
2018-06-08T18:01:33.117Z,98846.02
2018-06-08T18:04:03.349Z,98849.50
2018-06-08T18:06:33.452Z,98851.39
2018-06-08T18:09:04.780Z,98856.01
2018-06-08T18:11:34.723Z,98850.25
2018-06-08T18:14:04.822Z,98851.47
2018-06-08T18:16:35.078Z,98853.52
2018-06-08T18:19:05.482Z,98849.98
2018-06-08T18:21:35.633Z,98839.88
2018-06-08T18:24:05.782Z,98845.17
2018-06-08T18:26:35.849Z,98846.45
2018-06-08T18:29:05.922Z,98843.35
2018-06-08T18:31:36.153Z,98847.27
2018-06-08T18:34:06.313Z,98811.69
2018-06-08T18:36:36.437Z,98834.63
2018-06-08T18:39:08.548Z,98841.57
2018-06-08T18:41:39.124Z,98842.52
2018-06-08T18:44:09.249Z,98831.01
2018-06-08T18:46:39.583Z,98829.98
2018-06-08T18:49:09.902Z,98825.41
2018-06-08T18:51:40.926Z,98814.23
2018-06-08T18:54:11.066Z,98813.53
2018-06-08T18:56:41.286Z,98813.89
2018-06-08T18:59:11.493Z,98807.22
2018-06-08T19:01:41.689Z,98795.61
2018-06-08T19:04:11.843Z,98802.97
2018-06-08T19:06:41.965Z,98800.91
2018-06-08T19:09:12.063Z,98793.52
2018-06-08T19:11:42.319Z,98796.08
2018-06-08T19:14:12.442Z,98785.35
2018-06-08T19:16:42.653Z,98792.73
2018-06-08T19:19:13.187Z,98777.42
2018-06-08T19:21:43.611Z,98785.00
2018-06-08T19:24:14.282Z,98786.98
2018-06-08T19:26:44.695Z,98792.16
2018-06-08T19:29:15.028Z,98801.72
2018-06-08T19:31:45.223Z,98804.58
2018-06-08T19:34:15.522Z,98814.03
2018-06-08T19:36:45.770Z,98818.64
2018-06-08T19:39:16.005Z,98825.43
2018-06-08T19:41:46.791Z,98830.84
2018-06-08T19:44:17.123Z,98840.50
2018-06-08T19:46:47.619Z,98841.16
2018-06-08T19:49:18.019Z,98851.20
2018-06-08T19:51:48.212Z,98851.98
2018-06-08T19:54:18.334Z,98857.17
2018-06-08T19:56:48.515Z,98852.44
2018-06-08T19:59:18.744Z,98858.77
2018-06-08T20:01:48.878Z,98857.14
2018-06-08T20:04:19.174Z,98847.70
2018-06-08T20:06:49.407Z,98844.21
2018-06-08T20:09:19.726Z,98833.17
2018-06-08T20:11:49.916Z,98834.88
2018-06-08T20:14:20.066Z,98836.71
2018-06-08T20:16:50.301Z,98835.33
2018-06-08T20:19:20.453Z,98831.88
2018-06-08T20:21:50.822Z,98844.51
2018-06-08T20:24:21.021Z,98839.11
2018-06-08T20:26:51.298Z,98833.14
2018-06-08T20:29:21.443Z,98830.95
2018-06-08T20:31:51.425Z,98828.96
2018-06-08T20:34:21.499Z,98825.63
2018-06-08T20:36:51.590Z,98821.13
2018-06-08T20:39:21.967Z,98815.16
2018-06-08T20:41:52.137Z,98824.45
2018-06-08T20:44:22.507Z,98829.48
2018-06-08T20:46:52.611Z,98834.30
2018-06-08T20:49:22.804Z,98841.77
2018-06-08T20:51:53.006Z,98846.26
2018-06-08T20:54:22.944Z,98853.36
2018-06-08T20:57:04.091Z,98857.74
2018-06-08T20:59:33.993Z,98856.92
2018-06-08T21:02:04.229Z,98861.87
2018-06-08T21:04:34.530Z,98856.35
2018-06-08T21:07:04.800Z,98854.41
2018-06-08T21:09:34.951Z,98855.05
2018-06-08T21:12:05.165Z,98847.95
2018-06-08T21:14:35.791Z,98854.03
2018-06-08T21:17:06.804Z,98841.63
2018-06-08T21:19:37.575Z,98835.41
2018-06-08T21:22:07.801Z,98830.74
2018-06-08T21:24:38.156Z,98825.67
2018-06-08T21:27:08.705Z,98827.48
2018-06-08T21:29:39.392Z,98821.35
2018-06-08T21:32:09.690Z,98817.66
2018-06-08T21:34:40.039Z,98826.15
2018-06-08T21:37:10.367Z,98837.93
2018-06-08T21:39:40.802Z,98852.63
2018-06-08T21:42:11.198Z,98858.47
2018-06-08T21:44:41.525Z,98864.55
2018-06-08T21:47:11.610Z,98868.22
2018-06-08T21:49:41.957Z,98878.97
2018-06-08T21:52:12.384Z,98884.66
2018-06-08T21:54:42.953Z,98881.27
2018-06-08T21:57:18.644Z,98884.84
2018-06-08T21:59:52.028Z,98883.57
2018-06-08T22:02:22.362Z,98880.57
2018-06-08T22:04:52.965Z,98880.57
2018-06-08T22:07:23.407Z,98885.38
2018-06-08T22:09:54.467Z,98896.70
2018-06-08T22:12:24.578Z,98902.22
2018-06-08T22:14:54.868Z,98906.77
2018-06-08T22:17:24.982Z,98908.18
2018-06-08T22:19:55.210Z,98907.12
2018-06-08T22:22:25.533Z,98910.55
2018-06-08T22:24:55.739Z,98904.47
2018-06-08T22:27:25.972Z,98900.52
2018-06-08T22:29:56.181Z,98906.13
2018-06-08T22:32:26.335Z,98905.83
2018-06-08T22:34:56.951Z,98896.05
2018-06-08T22:37:27.263Z,98901.16
2018-06-08T22:39:57.377Z,98909.34
2018-06-08T22:42:27.609Z,98917.64
2018-06-08T22:44:57.838Z,98914.34
2018-06-08T22:47:28.362Z,98920.66
2018-06-08T22:49:58.617Z,98920.20
2018-06-08T22:52:29.118Z,98923.89
2018-06-08T22:54:59.326Z,98917.83
2018-06-08T22:57:29.643Z,98922.14
2018-06-08T22:59:59.694Z,98926.17
2018-06-08T23:02:29.818Z,98932.40
2018-06-08T23:04:59.793Z,98936.52
2018-06-08T23:07:30.051Z,98940.41
2018-06-08T23:10:00.174Z,98949.53
2018-06-08T23:12:30.187Z,98956.66
2018-06-08T23:15:00.521Z,98957.47
2018-06-08T23:17:30.731Z,98960.16
2018-06-08T23:20:00.980Z,98988.30
2018-06-08T23:22:31.378Z,98998.34
2018-06-08T23:25:01.312Z,99016.36
2018-06-08T23:27:31.597Z,99022.56
2018-06-08T23:30:01.828Z,99020.70
2018-06-08T23:32:32.480Z,99011.84
2018-06-08T23:35:02.443Z,99004.59
2018-06-08T23:37:34.358Z,99006.71
2018-06-08T23:42:39.821Z,98972.80
2018-06-08T23:45:09.938Z,98956.79
2018-06-08T23:47:40.157Z,98947.75
2018-06-08T23:50:10.776Z,98943.05
2018-06-08T23:52:41.006Z,98954.09
2018-06-08T23:55:11.647Z,98956.34
2018-06-08T23:57:41.654Z,98957.02
